Dai2kousei — JD2542 — position and weather

sailwx.info

Track history (hours):
 
Tides and Currents Weather Stations Pressure Air Temp Water Temp Dewpoint Dewpoint Depression Visibility Wind Speed Wind Dir Waves Ship Positions

Dai2kousei

Last reported at 2017-Oct-07 11:03 UTC. Time now 2017-Oct-19 14:46 UTC.
Position N 34°47' E 139°08'.
Warning: this ship's position is 12 days out of date.

Length 77 m; draft 4.5 m.

MMSI: 431000467.

Date/timePositionNaut miles runAvg speedWind from/ knotsBaromVisibWave heightAir tempDewpointWater temp
2017-Oct-07 11:03N 34°47' E 139°08'211.1
2017-Oct-07 10:53N 34°48' E 139°09'2210.7
2017-Oct-07 08:49N 35°02' E 139°30'310.4
2017-Oct-07 08:30N 35°04' E 139°33'611.2
2017-Oct-07 08:00N 35°06' E 139°39'510.3
2017-Oct-07 07:30N 35°10' E 139°44'3 6.7
2017-Oct-07 06:59N 35°13' E 139°43'0 0.0
2017-Oct-07 06:28N 35°13' E 139°43'0 0.0
2017-Oct-07 06:00N 35°13' E 139°43'0 0.0
2017-Oct-07 05:30N 35°13' E 139°43'0 0.0
2017-Oct-07 04:57N 35°13' E 139°43'0 0.0
2017-Oct-07 04:25N 35°13' E 139°43'0 0.0
2017-Oct-07 04:00N 35°13' E 139°43'0 0.0
2017-Oct-07 03:29N 35°13' E 139°43'0 0.0
2017-Oct-07 03:00N 35°13' E 139°43'0 0.0
2017-Oct-07 02:29N 35°13' E 139°43'0 0.0
2017-Oct-07 02:00N 35°13' E 139°43'0 0.0
2017-Oct-07 01:30N 35°13' E 139°43'0 0.0
2017-Oct-07 01:00N 35°13' E 139°43'0 0.0
2017-Oct-07 00:30N 35°13' E 139°43'0 0.0
2017-Oct-06 23:58N 35°13' E 139°43'0 0.0
2017-Oct-06 23:30N 35°13' E 139°43'0 0.0
2017-Oct-06 23:00N 35°13' E 139°43'0 0.0
2017-Oct-06 22:30N 35°13' E 139°43'0 0.1
2017-Oct-06 22:00N 35°13' E 139°43'2 3.1
2017-Oct-06 21:30N 35°13' E 139°45'4 8.2
2017-Oct-06 21:00N 35°17' E 139°45'510.4
2017-Oct-06 20:30N 35°21' E 139°41'0 0.1
2017-Oct-06 20:00N 35°21' E 139°41'0 0.1
2017-Oct-06 19:30N 35°21' E 139°41'0 0.0
2017-Oct-06 19:00N 35°21' E 139°41'0 0.1
2017-Oct-06 18:30N 35°21' E 139°41'0 0.0
2017-Oct-06 18:00N 35°21' E 139°41'0 0.0
2017-Oct-06 17:30N 35°21' E 139°41'0 0.0
2017-Oct-06 17:00N 35°21' E 139°41'0 0.0
2017-Oct-06 16:30N 35°21' E 139°41'0 0.0
2017-Oct-06 16:00N 35°21' E 139°41'0 0.0
2017-Oct-06 15:30N 35°21' E 139°41'0 0.0
2017-Oct-06 15:00N 35°21' E 139°41'0 0.0
2017-Oct-06 14:30N 35°21' E 139°41'0 0.0
2017-Oct-06 14:00N 35°21' E 139°41'0 0.0
2017-Oct-06 13:30N 35°21' E 139°41'0 0.0
2017-Oct-06 13:00N 35°21' E 139°41'0 0.0
2017-Oct-06 12:30N 35°21' E 139°41'0 0.0
2017-Oct-06 12:00N 35°21' E 139°41'0 0.0
2017-Oct-06 11:30N 35°21' E 139°41'0 0.0
2017-Oct-06 11:00N 35°21' E 139°41'0 0.0
2017-Oct-06 10:30N 35°21' E 139°41'0 0.0
2017-Oct-06 10:00N 35°21' E 139°41'0 0.0
2017-Oct-06 09:30N 35°21' E 139°41'1 1.0
2017-Oct-06 09:00N 35°21' E 139°41'611.4
2017-Oct-06 08:30N 35°26' E 139°45'8 0.4
2017-Oct-05 11:56N 35°31' E 139°52'410.1
2017-Oct-05 11:30N 35°30' E 139°47'3 4.2
2017-Oct-05 10:53N 35°29' E 139°44'0 0.0
2017-Oct-05 10:27N 35°29' E 139°44'0 0.0
2017-Oct-05 09:59N 35°29' E 139°44'0 0.0
2017-Oct-05 09:14N 35°29' E 139°44'0 0.0
2017-Oct-05 08:54N 35°29' E 139°44'0 0.0
2017-Oct-05 08:29N 35°29' E 139°44'0 0.0
2017-Oct-05 08:00N 35°29' E 139°44'0 0.0
2017-Oct-05 07:30N 35°29' E 139°44'0 0.0
2017-Oct-05 07:00N 35°29' E 139°44'0 0.0
2017-Oct-05 06:30N 35°29' E 139°44'0 0.0
2017-Oct-05 06:00N 35°29' E 139°44'0 0.0
2017-Oct-05 05:30N 35°29' E 139°44'0 0.0
2017-Oct-05 05:00N 35°29' E 139°44'0 0.0
2017-Oct-05 04:30N 35°29' E 139°44'0 0.0
2017-Oct-05 04:00N 35°29' E 139°44'0 0.0
2017-Oct-05 03:30N 35°29' E 139°44'0 0.0
2017-Oct-05 03:00N 35°29' E 139°44'0 0.0
2017-Oct-05 02:30N 35°29' E 139°44'0 0.0
2017-Oct-05 02:00N 35°29' E 139°44'0 0.0
2017-Oct-05 01:30N 35°29' E 139°44'0 0.0
2017-Oct-05 01:00N 35°29' E 139°44'0 0.0
2017-Oct-05 00:30N 35°29' E 139°44'0 0.0
2017-Oct-05 00:00N 35°29' E 139°44'0 0.0
2017-Oct-04 23:30N 35°29' E 139°44'0 0.0
2017-Oct-04 23:00N 35°29' E 139°44'0 0.0
2017-Oct-04 22:30N 35°29' E 139°44'0 0.0
2017-Oct-04 22:00N 35°29' E 139°44'0 0.0
2017-Oct-04 21:30N 35°29' E 139°44'0 0.0
2017-Oct-04 21:00N 35°29' E 139°44'1 1.7
2017-Oct-04 20:30N 35°28' E 139°45'2 3.7
2017-Oct-04 20:00N 35°28' E 139°42'0 0.0
2017-Oct-04 19:30N 35°28' E 139°42'0 0.0
2017-Oct-04 19:00N 35°28' E 139°42'0 0.0
2017-Oct-04 18:30N 35°28' E 139°42'0 0.0
2017-Oct-04 18:00N 35°28' E 139°42'0 0.0
2017-Oct-04 17:30N 35°28' E 139°42'0 0.0
2017-Oct-04 17:00N 35°28' E 139°42'0 0.0
2017-Oct-04 16:30N 35°28' E 139°42'0 0.0
2017-Oct-04 16:00N 35°28' E 139°42'0 0.0
2017-Oct-04 15:30N 35°28' E 139°42'0 0.0
2017-Oct-04 15:00N 35°28' E 139°42'0 0.0
2017-Oct-04 14:30N 35°28' E 139°42'0 0.0
2017-Oct-04 14:00N 35°28' E 139°42'0 0.0
2017-Oct-04 13:30N 35°28' E 139°42'0 0.0
2017-Oct-04 13:00N 35°28' E 139°42'0 0.0
2017-Oct-04 12:30N 35°28' E 139°42'0 0.3
2017-Oct-04 12:00N 35°28' E 139°42'1 2.5
2017-Oct-04 11:30N 35°27' E 139°42'0 0.0
2017-Oct-04 11:00N 35°27' E 139°42'0 0.0
2017-Oct-04 10:30N 35°27' E 139°42'0 0.0
2017-Oct-04 10:00N 35°27' E 139°42'0 0.0
2017-Oct-04 09:30N 35°27' E 139°42'0 0.0
2017-Oct-04 09:00N 35°27' E 139°42'0 0.0
2017-Oct-04 08:30N 35°27' E 139°42'0 0.0
2017-Oct-04 08:00N 35°27' E 139°42'0 0.0
2017-Oct-04 07:30N 35°27' E 139°42'0 0.0
2017-Oct-04 07:00N 35°27' E 139°42'0 0.0
2017-Oct-04 06:30N 35°27' E 139°42'0 0.0
2017-Oct-04 06:00N 35°27' E 139°42'0 0.0
2017-Oct-04 05:30N 35°27' E 139°42'0 0.0
2017-Oct-04 05:00N 35°27' E 139°42'0 0.0
2017-Oct-04 04:30N 35°27' E 139°42'0 0.0
2017-Oct-04 04:00N 35°27' E 139°42'0 0.0
2017-Oct-04 03:30N 35°27' E 139°42'0 0.0
2017-Oct-04 03:00N 35°27' E 139°42'0 0.0
2017-Oct-04 02:30N 35°27' E 139°42'0 0.0
2017-Oct-04 02:00N 35°27' E 139°42'0 0.0
2017-Oct-04 01:30N 35°27' E 139°42'0 0.0
2017-Oct-04 01:00N 35°27' E 139°42'0 0.0
2017-Oct-04 00:30N 35°27' E 139°42'0 0.0
2017-Oct-04 00:00N 35°27' E 139°42'0 0.0
2017-Oct-03 23:30N 35°27' E 139°42'0 0.0
2017-Oct-03 23:00N 35°27' E 139°42'0 0.0
2017-Oct-03 22:30N 35°27' E 139°42'0 0.0
2017-Oct-03 22:00N 35°27' E 139°42'0 0.0
2017-Oct-03 21:30N 35°27' E 139°42'0 0.0
2017-Oct-03 21:00N 35°27' E 139°42'0 0.0
2017-Oct-03 20:30N 35°27' E 139°42'0 0.0
2017-Oct-03 20:00N 35°27' E 139°42'0 0.0
2017-Oct-03 19:30N 35°27' E 139°42'0 0.0
2017-Oct-03 19:00N 35°27' E 139°42'0 0.0
2017-Oct-03 18:30N 35°27' E 139°42'0 0.0
2017-Oct-03 18:00N 35°27' E 139°42'0 0.0
2017-Oct-03 17:30N 35°27' E 139°42'0 0.0
2017-Oct-03 17:00N 35°27' E 139°42'0 0.0
2017-Oct-03 16:30N 35°27' E 139°42'0 0.0
2017-Oct-03 16:00N 35°27' E 139°42'0 0.0
2017-Oct-03 15:30N 35°27' E 139°42'0 0.0
2017-Oct-03 15:00N 35°27' E 139°42'0 0.0
2017-Oct-03 14:00N 35°27' E 139°42'0 0.0
2017-Oct-03 13:30N 35°27' E 139°42'0 0.0
2017-Oct-03 13:00N 35°27' E 139°42'0 0.0
2017-Oct-03 12:30N 35°27' E 139°42'0 0.0
2017-Oct-03 12:00N 35°27' E 139°42'0 0.0
2017-Oct-03 11:30N 35°27' E 139°42'0 0.0
2017-Oct-03 11:00N 35°27' E 139°42'0 0.0
2017-Oct-03 10:30N 35°27' E 139°42'0 0.0
2017-Oct-03 10:00N 35°27' E 139°42'0 0.0
2017-Oct-03 09:30N 35°27' E 139°42'1 1.1
2017-Oct-03 09:00N 35°27' E 139°43'510.6
2017-Oct-03 08:30N 35°28' E 139°49'4 0.4
2017-Oct-02 21:32N 35°30' E 139°54'0 8.4
2017-Oct-02 21:30N 35°30' E 139°54'5 9.4
2017-Oct-02 21:00N 35°27' E 139°50'4 7.5
2017-Oct-02 20:30N 35°27' E 139°45'3 6.0
2017-Oct-02 20:00N 35°28' E 139°42'0 0.0
2017-Oct-02 19:30N 35°28' E 139°42'0 0.0
2017-Oct-02 19:00N 35°28' E 139°42'0 0.0
2017-Oct-02 18:30N 35°28' E 139°42'0 0.1
2017-Oct-02 18:00N 35°28' E 139°42'0 0.1
2017-Oct-02 17:30N 35°28' E 139°42'0 0.0
2017-Oct-02 17:00N 35°28' E 139°42'0 0.0
2017-Oct-02 16:30N 35°28' E 139°42'0 0.0
2017-Oct-02 16:00N 35°28' E 139°42'0 0.0
2017-Oct-02 15:30N 35°28' E 139°42'0 0.0
2017-Oct-02 15:00N 35°28' E 139°42'0 0.0
2017-Oct-02 14:30N 35°28' E 139°42'0 0.0
2017-Oct-02 14:00N 35°28' E 139°42'0 0.0
2017-Oct-02 13:30N 35°28' E 139°42'0 0.0
2017-Oct-02 13:00N 35°28' E 139°42'0 0.0
2017-Oct-02 12:30N 35°28' E 139°42'0 0.3
2017-Oct-02 12:00N 35°28' E 139°42'3 6.2
2017-Oct-02 11:30N 35°26' E 139°46'4 7.7
2017-Oct-02 11:00N 35°23' E 139°45'5 9.2
2017-Oct-02 10:30N 35°18' E 139°44'5 9.8
2017-Oct-02 10:00N 35°14' E 139°47'510.5
2017-Oct-02 09:30N 35°08' E 139°47'510.5
2017-Oct-02 09:00N 35°03' E 139°46'1 2.0
2017-Oct-02 08:30N 35°02' E 139°46'5 9.7
2017-Oct-02 08:00N 34°60' E 139°41'  
Track history (hours):
 
Tides and Currents Weather Stations Pressure Air Temp Water Temp Dewpoint Dewpoint Depression Visibility Wind Speed Wind Dir Waves Ship Positions

Dai2kousei

Last reported at 2017-Oct-07 11:03 UTC. Time now 2017-Oct-19 14:46 UTC.
Position N 34°47' E 139°08'.
Warning: this ship's position is 12 days out of date.

Length 77 m; draft 4.5 m.

MMSI: 431000467.

Date/timePositionNaut miles runAvg speedWind from/ knotsBaromVisibWave heightAir tempDewpointWater temp
2017-Oct-07 11:03N 34°47' E 139°08'211.1
2017-Oct-07 10:53N 34°48' E 139°09'2210.7
2017-Oct-07 08:49N 35°02' E 139°30'310.4
2017-Oct-07 08:30N 35°04' E 139°33'611.2
2017-Oct-07 08:00N 35°06' E 139°39'510.3
2017-Oct-07 07:30N 35°10' E 139°44'3 6.7
2017-Oct-07 06:59N 35°13' E 139°43'0 0.0
2017-Oct-07 06:28N 35°13' E 139°43'0 0.0
2017-Oct-07 06:00N 35°13' E 139°43'0 0.0
2017-Oct-07 05:30N 35°13' E 139°43'0 0.0
2017-Oct-07 04:57N 35°13' E 139°43'0 0.0
2017-Oct-07 04:25N 35°13' E 139°43'0 0.0
2017-Oct-07 04:00N 35°13' E 139°43'0 0.0
2017-Oct-07 03:29N 35°13' E 139°43'0 0.0
2017-Oct-07 03:00N 35°13' E 139°43'0 0.0
2017-Oct-07 02:29N 35°13' E 139°43'0 0.0
2017-Oct-07 02:00N 35°13' E 139°43'0 0.0
2017-Oct-07 01:30N 35°13' E 139°43'0 0.0
2017-Oct-07 01:00N 35°13' E 139°43'0 0.0
2017-Oct-07 00:30N 35°13' E 139°43'0 0.0
2017-Oct-06 23:58N 35°13' E 139°43'0 0.0
2017-Oct-06 23:30N 35°13' E 139°43'0 0.0
2017-Oct-06 23:00N 35°13' E 139°43'0 0.0
2017-Oct-06 22:30N 35°13' E 139°43'0 0.1
2017-Oct-06 22:00N 35°13' E 139°43'2 3.1
2017-Oct-06 21:30N 35°13' E 139°45'4 8.2
2017-Oct-06 21:00N 35°17' E 139°45'510.4
2017-Oct-06 20:30N 35°21' E 139°41'0 0.1
2017-Oct-06 20:00N 35°21' E 139°41'0 0.1
2017-Oct-06 19:30N 35°21' E 139°41'0 0.0
2017-Oct-06 19:00N 35°21' E 139°41'0 0.1
2017-Oct-06 18:30N 35°21' E 139°41'0 0.0
2017-Oct-06 18:00N 35°21' E 139°41'0 0.0
2017-Oct-06 17:30N 35°21' E 139°41'0 0.0
2017-Oct-06 17:00N 35°21' E 139°41'0 0.0
2017-Oct-06 16:30N 35°21' E 139°41'0 0.0
2017-Oct-06 16:00N 35°21' E 139°41'0 0.0
2017-Oct-06 15:30N 35°21' E 139°41'0 0.0
2017-Oct-06 15:00N 35°21' E 139°41'0 0.0
2017-Oct-06 14:30N 35°21' E 139°41'0 0.0
2017-Oct-06 14:00N 35°21' E 139°41'0 0.0
2017-Oct-06 13:30N 35°21' E 139°41'0 0.0
2017-Oct-06 13:00N 35°21' E 139°41'0 0.0
2017-Oct-06 12:30N 35°21' E 139°41'0 0.0
2017-Oct-06 12:00N 35°21' E 139°41'0 0.0
2017-Oct-06 11:30N 35°21' E 139°41'0 0.0
2017-Oct-06 11:00N 35°21' E 139°41'0 0.0
2017-Oct-06 10:30N 35°21' E 139°41'0 0.0
2017-Oct-06 10:00N 35°21' E 139°41'0 0.0
2017-Oct-06 09:30N 35°21' E 139°41'1 1.0
2017-Oct-06 09:00N 35°21' E 139°41'611.4
2017-Oct-06 08:30N 35°26' E 139°45'8 0.4
2017-Oct-05 11:56N 35°31' E 139°52'410.1
2017-Oct-05 11:30N 35°30' E 139°47'3 4.2
2017-Oct-05 10:53N 35°29' E 139°44'0 0.0
2017-Oct-05 10:27N 35°29' E 139°44'0 0.0
2017-Oct-05 09:59N 35°29' E 139°44'0 0.0
2017-Oct-05 09:14N 35°29' E 139°44'0 0.0
2017-Oct-05 08:54N 35°29' E 139°44'0 0.0
2017-Oct-05 08:29N 35°29' E 139°44'0 0.0
2017-Oct-05 08:00N 35°29' E 139°44'0 0.0
2017-Oct-05 07:30N 35°29' E 139°44'0 0.0
2017-Oct-05 07:00N 35°29' E 139°44'0 0.0
2017-Oct-05 06:30N 35°29' E 139°44'0 0.0
2017-Oct-05 06:00N 35°29' E 139°44'0 0.0
2017-Oct-05 05:30N 35°29' E 139°44'0 0.0
2017-Oct-05 05:00N 35°29' E 139°44'0 0.0
2017-Oct-05 04:30N 35°29' E 139°44'0 0.0
2017-Oct-05 04:00N 35°29' E 139°44'0 0.0
2017-Oct-05 03:30N 35°29' E 139°44'0 0.0
2017-Oct-05 03:00N 35°29' E 139°44'0 0.0
2017-Oct-05 02:30N 35°29' E 139°44'0 0.0
2017-Oct-05 02:00N 35°29' E 139°44'0 0.0
2017-Oct-05 01:30N 35°29' E 139°44'0 0.0
2017-Oct-05 01:00N 35°29' E 139°44'0 0.0
2017-Oct-05 00:30N 35°29' E 139°44'0 0.0
2017-Oct-05 00:00N 35°29' E 139°44'0 0.0
2017-Oct-04 23:30N 35°29' E 139°44'0 0.0
2017-Oct-04 23:00N 35°29' E 139°44'0 0.0
2017-Oct-04 22:30N 35°29' E 139°44'0 0.0
2017-Oct-04 22:00N 35°29' E 139°44'0 0.0
2017-Oct-04 21:30N 35°29' E 139°44'0 0.0
2017-Oct-04 21:00N 35°29' E 139°44'1 1.7
2017-Oct-04 20:30N 35°28' E 139°45'2 3.7
2017-Oct-04 20:00N 35°28' E 139°42'0 0.0
2017-Oct-04 19:30N 35°28' E 139°42'0 0.0
2017-Oct-04 19:00N 35°28' E 139°42'0 0.0
2017-Oct-04 18:30N 35°28' E 139°42'0 0.0
2017-Oct-04 18:00N 35°28' E 139°42'0 0.0
2017-Oct-04 17:30N 35°28' E 139°42'0 0.0
2017-Oct-04 17:00N 35°28' E 139°42'0 0.0
2017-Oct-04 16:30N 35°28' E 139°42'0 0.0
2017-Oct-04 16:00N 35°28' E 139°42'0 0.0
2017-Oct-04 15:30N 35°28' E 139°42'0 0.0
2017-Oct-04 15:00N 35°28' E 139°42'0 0.0
2017-Oct-04 14:30N 35°28' E 139°42'0 0.0
2017-Oct-04 14:00N 35°28' E 139°42'0 0.0
2017-Oct-04 13:30N 35°28' E 139°42'0 0.0
2017-Oct-04 13:00N 35°28' E 139°42'0 0.0
2017-Oct-04 12:30N 35°28' E 139°42'0 0.3
2017-Oct-04 12:00N 35°28' E 139°42'1 2.5
2017-Oct-04 11:30N 35°27' E 139°42'0 0.0
2017-Oct-04 11:00N 35°27' E 139°42'0 0.0
2017-Oct-04 10:30N 35°27' E 139°42'0 0.0
2017-Oct-04 10:00N 35°27' E 139°42'0 0.0
2017-Oct-04 09:30N 35°27' E 139°42'0 0.0
2017-Oct-04 09:00N 35°27' E 139°42'0 0.0
2017-Oct-04 08:30N 35°27' E 139°42'0 0.0
2017-Oct-04 08:00N 35°27' E 139°42'0 0.0
2017-Oct-04 07:30N 35°27' E 139°42'0 0.0
2017-Oct-04 07:00N 35°27' E 139°42'0 0.0
2017-Oct-04 06:30N 35°27' E 139°42'0 0.0
2017-Oct-04 06:00N 35°27' E 139°42'0 0.0
2017-Oct-04 05:30N 35°27' E 139°42'0 0.0
2017-Oct-04 05:00N 35°27' E 139°42'0 0.0
2017-Oct-04 04:30N 35°27' E 139°42'0 0.0
2017-Oct-04 04:00N 35°27' E 139°42'0 0.0
2017-Oct-04 03:30N 35°27' E 139°42'0 0.0
2017-Oct-04 03:00N 35°27' E 139°42'0 0.0
2017-Oct-04 02:30N 35°27' E 139°42'0 0.0
2017-Oct-04 02:00N 35°27' E 139°42'0 0.0
2017-Oct-04 01:30N 35°27' E 139°42'0 0.0
2017-Oct-04 01:00N 35°27' E 139°42'0 0.0
2017-Oct-04 00:30N 35°27' E 139°42'0 0.0
2017-Oct-04 00:00N 35°27' E 139°42'0 0.0
2017-Oct-03 23:30N 35°27' E 139°42'0 0.0
2017-Oct-03 23:00N 35°27' E 139°42'0 0.0
2017-Oct-03 22:30N 35°27' E 139°42'0 0.0
2017-Oct-03 22:00N 35°27' E 139°42'0 0.0
2017-Oct-03 21:30N 35°27' E 139°42'0 0.0
2017-Oct-03 21:00N 35°27' E 139°42'0 0.0
2017-Oct-03 20:30N 35°27' E 139°42'0 0.0
2017-Oct-03 20:00N 35°27' E 139°42'0 0.0
2017-Oct-03 19:30N 35°27' E 139°42'0 0.0
2017-Oct-03 19:00N 35°27' E 139°42'0 0.0
2017-Oct-03 18:30N 35°27' E 139°42'0 0.0
2017-Oct-03 18:00N 35°27' E 139°42'0 0.0
2017-Oct-03 17:30N 35°27' E 139°42'0 0.0
2017-Oct-03 17:00N 35°27' E 139°42'0 0.0
2017-Oct-03 16:30N 35°27' E 139°42'0 0.0
2017-Oct-03 16:00N 35°27' E 139°42'0 0.0
2017-Oct-03 15:30N 35°27' E 139°42'0 0.0
2017-Oct-03 15:00N 35°27' E 139°42'0 0.0
2017-Oct-03 14:00N 35°27' E 139°42'0 0.0
2017-Oct-03 13:30N 35°27' E 139°42'0 0.0
2017-Oct-03 13:00N 35°27' E 139°42'0 0.0
2017-Oct-03 12:30N 35°27' E 139°42'0 0.0
2017-Oct-03 12:00N 35°27' E 139°42'0 0.0
2017-Oct-03 11:30N 35°27' E 139°42'0 0.0
2017-Oct-03 11:00N 35°27' E 139°42'0 0.0
2017-Oct-03 10:30N 35°27' E 139°42'0 0.0
2017-Oct-03 10:00N 35°27' E 139°42'0 0.0
2017-Oct-03 09:30N 35°27' E 139°42'1 1.1
2017-Oct-03 09:00N 35°27' E 139°43'510.6
2017-Oct-03 08:30N 35°28' E 139°49'4 0.4
2017-Oct-02 21:32N 35°30' E 139°54'0 8.4
2017-Oct-02 21:30N 35°30' E 139°54'5 9.4
2017-Oct-02 21:00N 35°27' E 139°50'4 7.5
2017-Oct-02 20:30N 35°27' E 139°45'3 6.0
2017-Oct-02 20:00N 35°28' E 139°42'0 0.0
2017-Oct-02 19:30N 35°28' E 139°42'0 0.0
2017-Oct-02 19:00N 35°28' E 139°42'0 0.0
2017-Oct-02 18:30N 35°28' E 139°42'0 0.1
2017-Oct-02 18:00N 35°28' E 139°42'0 0.1
2017-Oct-02 17:30N 35°28' E 139°42'0 0.0
2017-Oct-02 17:00N 35°28' E 139°42'0 0.0
2017-Oct-02 16:30N 35°28' E 139°42'0 0.0
2017-Oct-02 16:00N 35°28' E 139°42'0 0.0
2017-Oct-02 15:30N 35°28' E 139°42'0 0.0
2017-Oct-02 15:00N 35°28' E 139°42'0 0.0
2017-Oct-02 14:30N 35°28' E 139°42'0 0.0
2017-Oct-02 14:00N 35°28' E 139°42'0 0.0
2017-Oct-02 13:30N 35°28' E 139°42'0 0.0
2017-Oct-02 13:00N 35°28' E 139°42'0 0.0
2017-Oct-02 12:30N 35°28' E 139°42'0 0.3
2017-Oct-02 12:00N 35°28' E 139°42'3 6.2
2017-Oct-02 11:30N 35°26' E 139°46'4 7.7
2017-Oct-02 11:00N 35°23' E 139°45'5 9.2
2017-Oct-02 10:30N 35°18' E 139°44'5 9.8
2017-Oct-02 10:00N 35°14' E 139°47'510.5
2017-Oct-02 09:30N 35°08' E 139°47'510.5
2017-Oct-02 09:00N 35°03' E 139°46'1 2.0
2017-Oct-02 08:30N 35°02' E 139°46'5 9.7
2017-Oct-02 08:00N 34°60' E 139°41'  

Dump ship's entire track history